sensor_id;sensor_type;location;lat;lon;timestamp;P1;durP1;ratioP1;P2;durP2;ratioP2
80217;SDS011;70450;37.974;23.708;2024-02-28T00:02:11;23.23;;;7.93;;
80217;SDS011;70450;37.974;23.708;2024-02-28T00:04:39;21.80;;;7.72;;
80217;SDS011;70450;37.974;23.708;2024-02-28T00:07:07;15.38;;;6.85;;
80217;SDS011;70450;37.974;23.708;2024-02-28T00:09:33;22.77;;;8.35;;
80217;SDS011;70450;37.974;23.708;2024-02-28T00:12:02;18.58;;;7.72;;
80217;SDS011;70450;37.974;23.708;2024-02-28T00:14:28;18.55;;;8.02;;
80217;SDS011;70450;37.974;23.708;2024-02-28T00:16:55;16.75;;;8.35;;
80217;SDS011;70450;37.974;23.708;2024-02-28T00:19:21;20.00;;;7.57;;
80217;SDS011;70450;37.974;23.708;2024-02-28T00:21:48;16.60;;;7.38;;
80217;SDS011;70450;37.974;23.708;2024-02-28T00:24:14;22.77;;;7.25;;
80217;SDS011;70450;37.974;23.708;2024-02-28T00:26:41;24.02;;;8.50;;
80217;SDS011;70450;37.974;23.708;2024-02-28T00:29:10;26.23;;;8.32;;
80217;SDS011;70450;37.974;23.708;2024-02-28T00:31:37;15.85;;;7.90;;
80217;SDS011;70450;37.974;23.708;2024-02-28T00:34:03;21.77;;;8.98;;
80217;SDS011;70450;37.974;23.708;2024-02-28T00:36:29;16.38;;;7.47;;
80217;SDS011;70450;37.974;23.708;2024-02-28T00:38:55;21.98;;;9.10;;
80217;SDS011;70450;37.974;23.708;2024-02-28T00:41:21;20.63;;;7.57;;
80217;SDS011;70450;37.974;23.708;2024-02-28T00:43:48;22.83;;;7.75;;
80217;SDS011;70450;37.974;23.708;2024-02-28T00:46:14;24.13;;;8.75;;
80217;SDS011;70450;37.974;23.708;2024-02-28T00:48:40;22.27;;;8.88;;
80217;SDS011;70450;37.974;23.708;2024-02-28T00:51:07;21.85;;;9.60;;
80217;SDS011;70450;37.974;23.708;2024-02-28T00:53:36;17.00;;;8.40;;
80217;SDS011;70450;37.974;23.708;2024-02-28T00:56:02;22.42;;;9.45;;
80217;SDS011;70450;37.974;23.708;2024-02-28T00:58:29;23.98;;;9.52;;
80217;SDS011;70450;37.974;23.708;2024-02-28T01:00:55;26.77;;;9.70;;
80217;SDS011;70450;37.974;23.708;2024-02-28T01:03:22;32.70;;;10.40;;
80217;SDS011;70450;37.974;23.708;2024-02-28T01:05:49;21.50;;;10.25;;
80217;SDS011;70450;37.974;23.708;2024-02-28T01:08:16;35.97;;;11.38;;
80217;SDS011;70450;37.974;23.708;2024-02-28T01:10:45;20.52;;;10.18;;
80217;SDS011;70450;37.974;23.708;2024-02-28T01:13:12;21.33;;;9.73;;
80217;SDS011;70450;37.974;23.708;2024-02-28T01:15:41;25.08;;;9.60;;
80217;SDS011;70450;37.974;23.708;2024-02-28T01:18:08;27.60;;;10.00;;
80217;SDS011;70450;37.974;23.708;2024-02-28T01:20:37;22.67;;;8.35;;
80217;SDS011;70450;37.974;23.708;2024-02-28T01:23:03;25.63;;;9.23;;
80217;SDS011;70450;37.974;23.708;2024-02-28T01:25:29;24.67;;;8.77;;
80217;SDS011;70450;37.974;23.708;2024-02-28T01:27:56;21.08;;;8.75;;
80217;SDS011;70450;37.974;23.708;2024-02-28T01:30:28;19.38;;;8.57;;
80217;SDS011;70450;37.974;23.708;2024-02-28T01:32:54;26.73;;;9.38;;
80217;SDS011;70450;37.974;23.708;2024-02-28T01:35:20;18.73;;;8.90;;
80217;SDS011;70450;37.974;23.708;2024-02-28T01:37:47;22.27;;;8.82;;
80217;SDS011;70450;37.974;23.708;2024-02-28T01:40:13;19.20;;;8.20;;
80217;SDS011;70450;37.974;23.708;2024-02-28T01:42:40;21.52;;;7.75;;
80217;SDS011;70450;37.974;23.708;2024-02-28T01:45:06;20.25;;;8.35;;
80217;SDS011;70450;37.974;23.708;2024-02-28T01:47:36;25.70;;;9.43;;
80217;SDS011;70450;37.974;23.708;2024-02-28T01:50:03;20.42;;;9.20;;
80217;SDS011;70450;37.974;23.708;2024-02-28T01:52:29;20.45;;;8.32;;
80217;SDS011;70450;37.974;23.708;2024-02-28T01:54:56;19.48;;;8.40;;
80217;SDS011;70450;37.974;23.708;2024-02-28T01:57:22;18.67;;;8.57;;
80217;SDS011;70450;37.974;23.708;2024-02-28T01:59:49;24.30;;;8.70;;
80217;SDS011;70450;37.974;23.708;2024-02-28T02:02:20;21.73;;;8.77;;
80217;SDS011;70450;37.974;23.708;2024-02-28T02:04:46;24.67;;;8.57;;
80217;SDS011;70450;37.974;23.708;2024-02-28T02:07:14;17.30;;;7.97;;
80217;SDS011;70450;37.974;23.708;2024-02-28T02:09:41;20.40;;;8.63;;
80217;SDS011;70450;37.974;23.708;2024-02-28T02:12:09;19.77;;;8.63;;
80217;SDS011;70450;37.974;23.708;2024-02-28T02:14:36;24.88;;;9.02;;
80217;SDS011;70450;37.974;23.708;2024-02-28T02:17:02;21.20;;;8.32;;
80217;SDS011;70450;37.974;23.708;2024-02-28T02:19:29;23.52;;;8.20;;
80217;SDS011;70450;37.974;23.708;2024-02-28T02:21:57;22.05;;;8.43;;
80217;SDS011;70450;37.974;23.708;2024-02-28T02:24:24;28.40;;;9.20;;
80217;SDS011;70450;37.974;23.708;2024-02-28T02:26:54;16.80;;;7.63;;
80217;SDS011;70450;37.974;23.708;2024-02-28T02:29:23;25.52;;;8.07;;
80217;SDS011;70450;37.974;23.708;2024-02-28T02:31:49;23.45;;;8.70;;
80217;SDS011;70450;37.974;23.708;2024-02-28T02:34:15;29.42;;;8.43;;
80217;SDS011;70450;37.974;23.708;2024-02-28T02:36:41;23.55;;;9.48;;
80217;SDS011;70450;37.974;23.708;2024-02-28T02:39:07;36.83;;;8.93;;
80217;SDS011;70450;37.974;23.708;2024-02-28T02:41:36;27.25;;;9.43;;
80217;SDS011;70450;37.974;23.708;2024-02-28T02:44:02;23.73;;;8.73;;
80217;SDS011;70450;37.974;23.708;2024-02-28T02:46:28;20.55;;;8.57;;
80217;SDS011;70450;37.974;23.708;2024-02-28T02:48:55;23.48;;;8.32;;
80217;SDS011;70450;37.974;23.708;2024-02-28T02:51:21;19.77;;;9.57;;
80217;SDS011;70450;37.974;23.708;2024-02-28T02:53:47;28.00;;;9.45;;
80217;SDS011;70450;37.974;23.708;2024-02-28T02:56:14;18.88;;;8.20;;
80217;SDS011;70450;37.974;23.708;2024-02-28T02:58:40;24.00;;;9.57;;
80217;SDS011;70450;37.974;23.708;2024-02-28T03:01:06;17.88;;;7.53;;
80217;SDS011;70450;37.974;23.708;2024-02-28T03:03:34;23.80;;;8.35;;
80217;SDS011;70450;37.974;23.708;2024-02-28T03:06:03;25.30;;;9.55;;
80217;SDS011;70450;37.974;23.708;2024-02-28T03:08:30;24.02;;;8.95;;
80217;SDS011;70450;37.974;23.708;2024-02-28T03:10:57;22.48;;;8.35;;
80217;SDS011;70450;37.974;23.708;2024-02-28T03:13:24;25.45;;;8.68;;
80217;SDS011;70450;37.974;23.708;2024-02-28T03:15:51;24.85;;;8.75;;
80217;SDS011;70450;37.974;23.708;2024-02-28T03:18:17;31.65;;;11.30;;
80217;SDS011;70450;37.974;23.708;2024-02-28T03:20:44;23.58;;;10.25;;
80217;SDS011;70450;37.974;23.708;2024-02-28T03:23:10;21.90;;;8.60;;
80217;SDS011;70450;37.974;23.708;2024-02-28T03:25:36;32.03;;;8.80;;
80217;SDS011;70450;37.974;23.708;2024-02-28T03:28:02;20.10;;;8.15;;
80217;SDS011;70450;37.974;23.708;2024-02-28T03:30:29;21.83;;;7.63;;
80217;SDS011;70450;37.974;23.708;2024-02-28T03:32:55;23.63;;;9.63;;
80217;SDS011;70450;37.974;23.708;2024-02-28T03:35:21;24.63;;;9.35;;
80217;SDS011;70450;37.974;23.708;2024-02-28T03:37:47;24.85;;;8.95;;
80217;SDS011;70450;37.974;23.708;2024-02-28T03:40:13;26.45;;;8.38;;
80217;SDS011;70450;37.974;23.708;2024-02-28T03:42:40;24.33;;;10.52;;
80217;SDS011;70450;37.974;23.708;2024-02-28T03:45:09;26.73;;;9.15;;
80217;SDS011;70450;37.974;23.708;2024-02-28T03:47:35;33.70;;;13.73;;
80217;SDS011;70450;37.974;23.708;2024-02-28T03:50:01;28.38;;;10.38;;
80217;SDS011;70450;37.974;23.708;2024-02-28T03:52:29;32.95;;;9.57;;
80217;SDS011;70450;37.974;23.708;2024-02-28T03:54:56;23.27;;;10.02;;
80217;SDS011;70450;37.974;23.708;2024-02-28T03:57:23;22.25;;;9.07;;
80217;SDS011;70450;37.974;23.708;2024-02-28T03:59:49;22.23;;;9.77;;
80217;SDS011;70450;37.974;23.708;2024-02-28T04:02:18;32.58;;;9.30;;
80217;SDS011;70450;37.974;23.708;2024-02-28T04:04:44;29.05;;;11.50;;
80217;SDS011;70450;37.974;23.708;2024-02-28T04:07:12;45.47;;;12.73;;
80217;SDS011;70450;37.974;23.708;2024-02-28T04:09:41;28.50;;;8.70;;
80217;SDS011;70450;37.974;23.708;2024-02-28T04:12:07;24.67;;;8.88;;
80217;SDS011;70450;37.974;23.708;2024-02-28T04:14:36;31.10;;;10.52;;
80217;SDS011;70450;37.974;23.708;2024-02-28T04:17:04;33.22;;;10.18;;
80217;SDS011;70450;37.974;23.708;2024-02-28T04:19:32;23.90;;;8.60;;
80217;SDS011;70450;37.974;23.708;2024-02-28T04:22:06;34.55;;;12.50;;
80217;SDS011;70450;37.974;23.708;2024-02-28T04:24:35;35.38;;;10.60;;
80217;SDS011;70450;37.974;23.708;2024-02-28T04:27:01;29.85;;;10.25;;
80217;SDS011;70450;37.974;23.708;2024-02-28T04:29:30;36.42;;;10.98;;
80217;SDS011;70450;37.974;23.708;2024-02-28T04:31:56;34.70;;;11.27;;
80217;SDS011;70450;37.974;23.708;2024-02-28T04:34:22;30.33;;;11.32;;
80217;SDS011;70450;37.974;23.708;2024-02-28T04:36:48;31.80;;;11.90;;
80217;SDS011;70450;37.974;23.708;2024-02-28T04:39:14;28.92;;;10.90;;
80217;SDS011;70450;37.974;23.708;2024-02-28T04:41:41;32.53;;;11.77;;
80217;SDS011;70450;37.974;23.708;2024-02-28T04:44:07;33.28;;;12.38;;
80217;SDS011;70450;37.974;23.708;2024-02-28T04:46:34;31.83;;;13.32;;
80217;SDS011;70450;37.974;23.708;2024-02-28T04:49:00;37.25;;;15.95;;
80217;SDS011;70450;37.974;23.708;2024-02-28T04:51:26;37.70;;;12.60;;
80217;SDS011;70450;37.974;23.708;2024-02-28T04:53:52;34.35;;;14.57;;
80217;SDS011;70450;37.974;23.708;2024-02-28T04:56:18;32.67;;;15.13;;
80217;SDS011;70450;37.974;23.708;2024-02-28T04:58:45;32.30;;;14.88;;
80217;SDS011;70450;37.974;23.708;2024-02-28T05:01:11;28.50;;;15.63;;
80217;SDS011;70450;37.974;23.708;2024-02-28T05:03:38;38.50;;;16.45;;
80217;SDS011;70450;37.974;23.708;2024-02-28T05:06:04;42.80;;;19.42;;
80217;SDS011;70450;37.974;23.708;2024-02-28T05:08:30;25.80;;;14.15;;
80217;SDS011;70450;37.974;23.708;2024-02-28T05:10:56;40.33;;;17.05;;
80217;SDS011;70450;37.974;23.708;2024-02-28T05:13:23;35.78;;;19.45;;
80217;SDS011;70450;37.974;23.708;2024-02-28T05:15:51;32.85;;;18.65;;
80217;SDS011;70450;37.974;23.708;2024-02-28T05:18:17;41.65;;;18.40;;
80217;SDS011;70450;37.974;23.708;2024-02-28T05:20:43;34.72;;;18.77;;
80217;SDS011;70450;37.974;23.708;2024-02-28T05:23:10;38.97;;;18.77;;
80217;SDS011;70450;37.974;23.708;2024-02-28T05:25:36;52.63;;;18.73;;
80217;SDS011;70450;37.974;23.708;2024-02-28T05:28:03;32.63;;;18.50;;
80217;SDS011;70450;37.974;23.708;2024-02-28T05:30:29;35.15;;;19.00;;
80217;SDS011;70450;37.974;23.708;2024-02-28T05:32:56;37.47;;;19.95;;
80217;SDS011;70450;37.974;23.708;2024-02-28T05:35:22;48.30;;;29.25;;
80217;SDS011;70450;37.974;23.708;2024-02-28T05:37:52;43.17;;;23.55;;
80217;SDS011;70450;37.974;23.708;2024-02-28T05:40:20;48.20;;;24.55;;
80217;SDS011;70450;37.974;23.708;2024-02-28T05:42:46;37.58;;;19.25;;
80217;SDS011;70450;37.974;23.708;2024-02-28T05:45:12;45.97;;;21.02;;
80217;SDS011;70450;37.974;23.708;2024-02-28T05:47:41;47.53;;;21.50;;
80217;SDS011;70450;37.974;23.708;2024-02-28T05:50:07;35.67;;;19.73;;
80217;SDS011;70450;37.974;23.708;2024-02-28T05:52:35;57.05;;;25.33;;
80217;SDS011;70450;37.974;23.708;2024-02-28T05:55:02;46.45;;;22.45;;
80217;SDS011;70450;37.974;23.708;2024-02-28T05:57:28;50.33;;;26.27;;
80217;SDS011;70450;37.974;23.708;2024-02-28T05:59:54;59.38;;;23.75;;
80217;SDS011;70450;37.974;23.708;2024-02-28T06:02:20;43.95;;;24.05;;
80217;SDS011;70450;37.974;23.708;2024-02-28T06:04:49;47.38;;;22.45;;
80217;SDS011;70450;37.974;23.708;2024-02-28T06:07:18;45.80;;;21.75;;
80217;SDS011;70450;37.974;23.708;2024-02-28T06:09:44;38.70;;;21.20;;
80217;SDS011;70450;37.974;23.708;2024-02-28T06:12:10;76.57;;;26.67;;
80217;SDS011;70450;37.974;23.708;2024-02-28T06:14:37;45.05;;;22.38;;
80217;SDS011;70450;37.974;23.708;2024-02-28T06:17:03;37.33;;;20.60;;
80217;SDS011;70450;37.974;23.708;2024-02-28T06:19:29;54.55;;;24.38;;
80217;SDS011;70450;37.974;23.708;2024-02-28T06:21:55;50.70;;;22.27;;
80217;SDS011;70450;37.974;23.708;2024-02-28T06:24:21;53.72;;;25.42;;
80217;SDS011;70450;37.974;23.708;2024-02-28T06:26:48;43.60;;;22.50;;
80217;SDS011;70450;37.974;23.708;2024-02-28T06:29:14;46.70;;;22.05;;
80217;SDS011;70450;37.974;23.708;2024-02-28T06:31:40;45.17;;;20.58;;
80217;SDS011;70450;37.974;23.708;2024-02-28T06:34:07;46.33;;;20.45;;
80217;SDS011;70450;37.974;23.708;2024-02-28T06:36:33;46.08;;;19.75;;
80217;SDS011;70450;37.974;23.708;2024-02-28T06:38:59;62.08;;;19.58;;
80217;SDS011;70450;37.974;23.708;2024-02-28T06:41:25;51.47;;;24.98;;
80217;SDS011;70450;37.974;23.708;2024-02-28T06:43:51;37.17;;;22.88;;
80217;SDS011;70450;37.974;23.708;2024-02-28T06:46:18;46.67;;;20.65;;
80217;SDS011;70450;37.974;23.708;2024-02-28T06:48:44;46.35;;;21.38;;
80217;SDS011;70450;37.974;23.708;2024-02-28T06:51:10;45.05;;;21.10;;
80217;SDS011;70450;37.974;23.708;2024-02-28T06:53:36;49.65;;;20.10;;
80217;SDS011;70450;37.974;23.708;2024-02-28T06:56:02;54.20;;;20.05;;
80217;SDS011;70450;37.974;23.708;2024-02-28T06:58:29;51.45;;;20.20;;
80217;SDS011;70450;37.974;23.708;2024-02-28T07:00:55;41.35;;;19.33;;
80217;SDS011;70450;37.974;23.708;2024-02-28T07:03:21;46.80;;;19.08;;
80217;SDS011;70450;37.974;23.708;2024-02-28T07:05:49;41.33;;;17.48;;
80217;SDS011;70450;37.974;23.708;2024-02-28T07:08:16;41.78;;;16.13;;
80217;SDS011;70450;37.974;23.708;2024-02-28T07:10:42;40.47;;;16.40;;
80217;SDS011;70450;37.974;23.708;2024-02-28T07:13:09;49.47;;;16.88;;
80217;SDS011;70450;37.974;23.708;2024-02-28T07:15:36;46.58;;;20.10;;
80217;SDS011;70450;37.974;23.708;2024-02-28T07:18:02;44.42;;;22.33;;
80217;SDS011;70450;37.974;23.708;2024-02-28T07:20:28;41.28;;;17.33;;
80217;SDS011;70450;37.974;23.708;2024-02-28T07:22:54;44.00;;;17.98;;
80217;SDS011;70450;37.974;23.708;2024-02-28T07:25:21;47.30;;;17.40;;
80217;SDS011;70450;37.974;23.708;2024-02-28T07:27:47;52.28;;;21.05;;
80217;SDS011;70450;37.974;23.708;2024-02-28T07:30:13;40.47;;;17.70;;
80217;SDS011;70450;37.974;23.708;2024-02-28T07:32:40;39.33;;;18.52;;
80217;SDS011;70450;37.974;23.708;2024-02-28T07:35:06;42.92;;;19.45;;
80217;SDS011;70450;37.974;23.708;2024-02-28T07:37:33;39.58;;;20.02;;
80217;SDS011;70450;37.974;23.708;2024-02-28T07:39:59;45.03;;;19.27;;
80217;SDS011;70450;37.974;23.708;2024-02-28T07:42:25;45.78;;;23.58;;
80217;SDS011;70450;37.974;23.708;2024-02-28T07:44:52;67.13;;;28.40;;
80217;SDS011;70450;37.974;23.708;2024-02-28T07:47:22;38.95;;;17.55;;
80217;SDS011;70450;37.974;23.708;2024-02-28T07:49:49;37.58;;;18.75;;
80217;SDS011;70450;37.974;23.708;2024-02-28T07:52:16;32.28;;;17.15;;
80217;SDS011;70450;37.974;23.708;2024-02-28T07:54:42;42.75;;;18.33;;
80217;SDS011;70450;37.974;23.708;2024-02-28T07:57:08;58.75;;;23.70;;
80217;SDS011;70450;37.974;23.708;2024-02-28T07:59:41;47.92;;;21.05;;
80217;SDS011;70450;37.974;23.708;2024-02-28T08:02:08;38.33;;;17.85;;
80217;SDS011;70450;37.974;23.708;2024-02-28T08:04:38;35.35;;;17.35;;
80217;SDS011;70450;37.974;23.708;2024-02-28T08:07:05;51.28;;;17.02;;
80217;SDS011;70450;37.974;23.708;2024-02-28T08:09:31;37.17;;;17.60;;
80217;SDS011;70450;37.974;23.708;2024-02-28T08:11:57;40.63;;;17.80;;
80217;SDS011;70450;37.974;23.708;2024-02-28T08:14:24;43.80;;;18.00;;
80217;SDS011;70450;37.974;23.708;2024-02-28T08:16:50;37.35;;;18.77;;
80217;SDS011;70450;37.974;23.708;2024-02-28T08:19:17;37.95;;;17.98;;
80217;SDS011;70450;37.974;23.708;2024-02-28T08:21:43;49.67;;;20.30;;
80217;SDS011;70450;37.974;23.708;2024-02-28T08:24:10;43.15;;;19.48;;
80217;SDS011;70450;37.974;23.708;2024-02-28T08:26:36;40.60;;;18.30;;
80217;SDS011;70450;37.974;23.708;2024-02-28T08:29:02;49.33;;;19.52;;
80217;SDS011;70450;37.974;23.708;2024-02-28T08:31:28;38.95;;;17.85;;
80217;SDS011;70450;37.974;23.708;2024-02-28T08:33:54;43.17;;;21.85;;
80217;SDS011;70450;37.974;23.708;2024-02-28T08:36:21;37.97;;;19.23;;
80217;SDS011;70450;37.974;23.708;2024-02-28T08:38:47;41.55;;;18.60;;
80217;SDS011;70450;37.974;23.708;2024-02-28T08:41:13;47.70;;;19.33;;
80217;SDS011;70450;37.974;23.708;2024-02-28T08:43:40;46.35;;;19.48;;
80217;SDS011;70450;37.974;23.708;2024-02-28T08:46:06;46.60;;;18.05;;
80217;SDS011;70450;37.974;23.708;2024-02-28T08:48:33;40.90;;;18.52;;
80217;SDS011;70450;37.974;23.708;2024-02-28T08:50:59;42.63;;;18.42;;
80217;SDS011;70450;37.974;23.708;2024-02-28T08:53:26;45.85;;;19.52;;
80217;SDS011;70450;37.974;23.708;2024-02-28T08:55:52;42.30;;;19.45;;
80217;SDS011;70450;37.974;23.708;2024-02-28T08:58:18;41.58;;;19.88;;
80217;SDS011;70450;37.974;23.708;2024-02-28T09:00:44;37.67;;;19.48;;
80217;SDS011;70450;37.974;23.708;2024-02-28T09:03:10;49.88;;;20.70;;
80217;SDS011;70450;37.974;23.708;2024-02-28T09:05:37;41.63;;;17.92;;
80217;SDS011;70450;37.974;23.708;2024-02-28T09:08:05;55.80;;;21.65;;
80217;SDS011;70450;37.974;23.708;2024-02-28T09:10:32;46.00;;;18.17;;
80217;SDS011;70450;37.974;23.708;2024-02-28T09:13:00;40.00;;;20.27;;
80217;SDS011;70450;37.974;23.708;2024-02-28T09:15:26;41.08;;;19.25;;
80217;SDS011;70450;37.974;23.708;2024-02-28T09:17:52;40.95;;;18.85;;
80217;SDS011;70450;37.974;23.708;2024-02-28T09:20:18;44.20;;;20.05;;
80217;SDS011;70450;37.974;23.708;2024-02-28T09:22:44;51.65;;;20.17;;
80217;SDS011;70450;37.974;23.708;2024-02-28T09:25:11;42.50;;;20.13;;
80217;SDS011;70450;37.974;23.708;2024-02-28T09:27:37;39.17;;;19.55;;
80217;SDS011;70450;37.974;23.708;2024-02-28T09:30:03;49.10;;;21.92;;
80217;SDS011;70450;37.974;23.708;2024-02-28T09:32:30;42.75;;;21.23;;
80217;SDS011;70450;37.974;23.708;2024-02-28T09:34:57;43.42;;;21.25;;
80217;SDS011;70450;37.974;23.708;2024-02-28T09:37:23;43.08;;;20.90;;
80217;SDS011;70450;37.974;23.708;2024-02-28T09:39:50;36.22;;;20.75;;
80217;SDS011;70450;37.974;23.708;2024-02-28T09:42:17;40.33;;;20.80;;
80217;SDS011;70450;37.974;23.708;2024-02-28T09:44:43;46.38;;;19.98;;
80217;SDS011;70450;37.974;23.708;2024-02-28T09:47:09;37.58;;;19.55;;
80217;SDS011;70450;37.974;23.708;2024-02-28T09:49:37;36.33;;;19.15;;
80217;SDS011;70450;37.974;23.708;2024-02-28T09:52:03;38.25;;;18.08;;
80217;SDS011;70450;37.974;23.708;2024-02-28T09:54:30;36.15;;;19.05;;
80217;SDS011;70450;37.974;23.708;2024-02-28T09:56:56;34.65;;;18.00;;
80217;SDS011;70450;37.974;23.708;2024-02-28T09:59:23;45.13;;;19.48;;
80217;SDS011;70450;37.974;23.708;2024-02-28T10:01:53;35.33;;;18.17;;
80217;SDS011;70450;37.974;23.708;2024-02-28T10:04:26;34.75;;;19.60;;
80217;SDS011;70450;37.974;23.708;2024-02-28T10:06:56;34.15;;;17.63;;
80217;SDS011;70450;37.974;23.708;2024-02-28T10:09:22;34.97;;;18.50;;
80217;SDS011;70450;37.974;23.708;2024-02-28T10:11:48;29.52;;;16.08;;
80217;SDS011;70450;37.974;23.708;2024-02-28T10:14:17;35.35;;;18.52;;
80217;SDS011;70450;37.974;23.708;2024-02-28T10:16:49;37.35;;;17.83;;
80217;SDS011;70450;37.974;23.708;2024-02-28T10:19:15;35.00;;;16.08;;
80217;SDS011;70450;37.974;23.708;2024-02-28T10:21:41;33.10;;;15.15;;
80217;SDS011;70450;37.974;23.708;2024-02-28T10:24:11;31.20;;;16.05;;
80217;SDS011;70450;37.974;23.708;2024-02-28T10:26:44;35.83;;;18.40;;
80217;SDS011;70450;37.974;23.708;2024-02-28T10:29:13;33.55;;;15.43;;
80217;SDS011;70450;37.974;23.708;2024-02-28T10:31:47;36.83;;;16.83;;
80217;SDS011;70450;37.974;23.708;2024-02-28T10:34:14;45.25;;;16.80;;
80217;SDS011;70450;37.974;23.708;2024-02-28T10:36:42;26.65;;;16.15;;
80217;SDS011;70450;37.974;23.708;2024-02-28T10:39:09;33.47;;;15.25;;
80217;SDS011;70450;37.974;23.708;2024-02-28T10:41:37;28.27;;;16.85;;
80217;SDS011;70450;37.974;23.708;2024-02-28T10:44:04;31.52;;;16.75;;
80217;SDS011;70450;37.974;23.708;2024-02-28T10:46:31;38.20;;;17.23;;
80217;SDS011;70450;37.974;23.708;2024-02-28T10:48:57;27.90;;;17.33;;
80217;SDS011;70450;37.974;23.708;2024-02-28T10:51:24;35.03;;;16.40;;
80217;SDS011;70450;37.974;23.708;2024-02-28T10:56:31;30.27;;;16.52;;
80217;SDS011;70450;37.974;23.708;2024-02-28T10:58:58;28.55;;;14.10;;
80217;SDS011;70450;37.974;23.708;2024-02-28T11:01:26;29.80;;;15.13;;
80217;SDS011;70450;37.974;23.708;2024-02-28T11:03:52;38.65;;;17.25;;
80217;SDS011;70450;37.974;23.708;2024-02-28T11:06:20;34.72;;;15.30;;
80217;SDS011;70450;37.974;23.708;2024-02-28T11:08:48;26.92;;;13.88;;
80217;SDS011;70450;37.974;23.708;2024-02-28T11:11:18;30.55;;;13.90;;
80217;SDS011;70450;37.974;23.708;2024-02-28T11:13:54;39.30;;;21.95;;
80217;SDS011;70450;37.974;23.708;2024-02-28T11:18:54;22.17;;;12.40;;
80217;SDS011;70450;37.974;23.708;2024-02-28T11:21:22;31.38;;;13.73;;
80217;SDS011;70450;37.974;23.708;2024-02-28T11:23:52;29.08;;;13.45;;
80217;SDS011;70450;37.974;23.708;2024-02-28T11:28:54;26.55;;;13.15;;
80217;SDS011;70450;37.974;23.708;2024-02-28T11:31:20;25.40;;;14.27;;
80217;SDS011;70450;37.974;23.708;2024-02-28T11:33:50;25.05;;;13.70;;
80217;SDS011;70450;37.974;23.708;2024-02-28T11:36:16;27.55;;;16.42;;
80217;SDS011;70450;37.974;23.708;2024-02-28T11:38:42;30.58;;;14.80;;
80217;SDS011;70450;37.974;23.708;2024-02-28T11:41:09;24.42;;;13.02;;
80217;SDS011;70450;37.974;23.708;2024-02-28T11:43:35;23.25;;;12.88;;
80217;SDS011;70450;37.974;23.708;2024-02-28T11:46:01;23.23;;;12.27;;
80217;SDS011;70450;37.974;23.708;2024-02-28T11:48:33;26.77;;;12.73;;
80217;SDS011;70450;37.974;23.708;2024-02-28T11:50:59;29.27;;;12.40;;
80217;SDS011;70450;37.974;23.708;2024-02-28T11:53:26;30.65;;;14.60;;
80217;SDS011;70450;37.974;23.708;2024-02-28T11:55:53;22.27;;;11.02;;
80217;SDS011;70450;37.974;23.708;2024-02-28T11:58:21;22.52;;;10.30;;
80217;SDS011;70450;37.974;23.708;2024-02-28T12:00:48;19.05;;;11.68;;
80217;SDS011;70450;37.974;23.708;2024-02-28T12:03:25;27.45;;;12.20;;
80217;SDS011;70450;37.974;23.708;2024-02-28T12:05:52;30.92;;;14.32;;
80217;SDS011;70450;37.974;23.708;2024-02-28T12:08:18;24.67;;;11.48;;
80217;SDS011;70450;37.974;23.708;2024-02-28T12:10:46;20.38;;;10.77;;
80217;SDS011;70450;37.974;23.708;2024-02-28T12:13:18;18.77;;;10.50;;
80217;SDS011;70450;37.974;23.708;2024-02-28T12:15:44;20.92;;;10.98;;
80217;SDS011;70450;37.974;23.708;2024-02-28T12:18:12;22.50;;;13.88;;
80217;SDS011;70450;37.974;23.708;2024-02-28T12:20:44;18.83;;;12.52;;
80217;SDS011;70450;37.974;23.708;2024-02-28T12:23:11;25.90;;;11.30;;
80217;SDS011;70450;37.974;23.708;2024-02-28T12:25:37;19.33;;;11.10;;
80217;SDS011;70450;37.974;23.708;2024-02-28T12:28:05;24.23;;;10.65;;
80217;SDS011;70450;37.974;23.708;2024-02-28T12:30:38;21.08;;;11.02;;
80217;SDS011;70450;37.974;23.708;2024-02-28T12:33:07;22.08;;;11.93;;
80217;SDS011;70450;37.974;23.708;2024-02-28T12:35:33;23.15;;;12.50;;
80217;SDS011;70450;37.974;23.708;2024-02-28T12:38:00;27.90;;;13.20;;
80217;SDS011;70450;37.974;23.708;2024-02-28T12:40:26;21.42;;;11.43;;
80217;SDS011;70450;37.974;23.708;2024-02-28T12:42:52;24.75;;;12.07;;
80217;SDS011;70450;37.974;23.708;2024-02-28T12:45:18;19.38;;;11.95;;
80217;SDS011;70450;37.974;23.708;2024-02-28T12:47:45;23.63;;;11.77;;
80217;SDS011;70450;37.974;23.708;2024-02-28T12:50:11;24.90;;;15.55;;
80217;SDS011;70450;37.974;23.708;2024-02-28T12:52:37;25.30;;;13.75;;
80217;SDS011;70450;37.974;23.708;2024-02-28T12:55:03;23.67;;;11.55;;
80217;SDS011;70450;37.974;23.708;2024-02-28T12:57:29;23.92;;;11.00;;
80217;SDS011;70450;37.974;23.708;2024-02-28T12:59:56;19.13;;;11.40;;
80217;SDS011;70450;37.974;23.708;2024-02-28T13:02:22;21.98;;;11.93;;
80217;SDS011;70450;37.974;23.708;2024-02-28T13:04:48;27.92;;;13.70;;
80217;SDS011;70450;37.974;23.708;2024-02-28T13:07:14;20.17;;;12.43;;
80217;SDS011;70450;37.974;23.708;2024-02-28T13:09:41;23.90;;;12.55;;
80217;SDS011;70450;37.974;23.708;2024-02-28T13:12:07;26.98;;;11.73;;
80217;SDS011;70450;37.974;23.708;2024-02-28T13:14:34;33.78;;;14.40;;
80217;SDS011;70450;37.974;23.708;2024-02-28T13:17:00;31.50;;;15.77;;
80217;SDS011;70450;37.974;23.708;2024-02-28T13:19:26;21.63;;;12.27;;
80217;SDS011;70450;37.974;23.708;2024-02-28T13:21:53;25.52;;;13.30;;
80217;SDS011;70450;37.974;23.708;2024-02-28T13:24:19;25.98;;;13.00;;
80217;SDS011;70450;37.974;23.708;2024-02-28T13:26:47;21.38;;;11.20;;
80217;SDS011;70450;37.974;23.708;2024-02-28T13:29:13;28.85;;;19.58;;
80217;SDS011;70450;37.974;23.708;2024-02-28T13:31:39;27.02;;;12.73;;
80217;SDS011;70450;37.974;23.708;2024-02-28T13:34:06;20.30;;;12.43;;
80217;SDS011;70450;37.974;23.708;2024-02-28T13:36:32;30.67;;;13.45;;
80217;SDS011;70450;37.974;23.708;2024-02-28T13:39:02;26.75;;;13.02;;
80217;SDS011;70450;37.974;23.708;2024-02-28T13:41:28;22.25;;;11.68;;
80217;SDS011;70450;37.974;23.708;2024-02-28T13:43:54;23.60;;;12.20;;
80217;SDS011;70450;37.974;23.708;2024-02-28T13:46:21;20.98;;;11.98;;
80217;SDS011;70450;37.974;23.708;2024-02-28T13:48:47;23.67;;;11.75;;
80217;SDS011;70450;37.974;23.708;2024-02-28T13:51:13;24.60;;;11.73;;
80217;SDS011;70450;37.974;23.708;2024-02-28T13:53:40;19.52;;;11.18;;
80217;SDS011;70450;37.974;23.708;2024-02-28T13:56:07;30.50;;;16.00;;
80217;SDS011;70450;37.974;23.708;2024-02-28T13:58:33;25.45;;;13.50;;
80217;SDS011;70450;37.974;23.708;2024-02-28T14:01:02;30.00;;;13.35;;
80217;SDS011;70450;37.974;23.708;2024-02-28T14:03:28;25.73;;;14.00;;
80217;SDS011;70450;37.974;23.708;2024-02-28T14:05:54;27.98;;;17.50;;
80217;SDS011;70450;37.974;23.708;2024-02-28T14:08:20;22.52;;;13.55;;
80217;SDS011;70450;37.974;23.708;2024-02-28T14:10:47;23.50;;;13.07;;
80217;SDS011;70450;37.974;23.708;2024-02-28T14:13:13;25.10;;;13.05;;
80217;SDS011;70450;37.974;23.708;2024-02-28T14:15:41;17.65;;;12.32;;
80217;SDS011;70450;37.974;23.708;2024-02-28T14:18:07;22.60;;;12.05;;